Time;durP1;ratioP1;P1;durP2;ratioP2;P2;SDS_P1;SDS_P2;PMS_P1;PMS_P2;Temp;Humidity;BMP_temperature;BMP_pressure;BME280_temperature;BME280_humidity;BME280_pressure;Samples;Min_cycle;Max_cycle;Signal;HPM_P1;HPM_P2
2021/03/01 00:00:42;;;;;;;17.43;15.03;;;;;;;-3.23;100.00;99601.03;4991457;28;20218;-68
2021/03/01 00:03:10;;;;;;;16.60;14.97;;;;;;;-3.21;100.00;99605.31;4990372;28;20261;-67
2021/03/01 00:05:37;;;;;;;15.90;14.33;;;;;;;-3.25;100.00;99605.41;4989137;28;20593;-67
2021/03/01 00:08:05;;;;;;;16.80;15.00;;;;;;;-3.27;99.99;99602.84;4989763;28;20605;-68
2021/03/01 00:10:32;;;;;;;17.90;15.67;;;;;;;-3.29;100.00;99603.78;4988781;28;20665;-68
2021/03/01 00:12:59;;;;;;;18.43;16.63;;;;;;;-3.24;100.00;99601.94;4990661;28;20213;-67
2021/03/01 00:15:27;;;;;;;18.07;16.27;;;;;;;-3.21;100.00;99604.44;4987446;28;20229;-68
2021/03/01 00:17:55;;;;;;;17.50;15.63;;;;;;;-3.18;99.85;99600.94;4993258;28;20231;-68
2021/03/01 00:20:23;;;;;;;17.10;15.13;;;;;;;-3.22;99.54;99607.94;4989881;28;20214;-68
2021/03/01 00:22:50;;;;;;;15.13;13.57;;;;;;;-3.28;99.81;99595.97;4992239;28;20232;-68
2021/03/01 00:25:17;;;;;;;15.70;14.03;;;;;;;-3.31;100.00;99596.03;4989989;28;20213;-67
2021/03/01 00:27:44;;;;;;;18.77;14.93;;;;;;;-3.38;100.00;99605.72;4990614;28;20205;-67
2021/03/01 00:30:12;;;;;;;16.93;14.67;;;;;;;-3.45;100.00;99600.72;4989886;28;20213;-68
2021/03/01 00:32:39;;;;;;;19.33;14.87;;;;;;;-3.44;100.00;99603.25;4990229;28;20604;-67
2021/03/01 00:35:09;;;;;;;15.57;13.97;;;;;;;-3.47;100.00;99611.09;4990219;28;20257;-68
2021/03/01 00:37:37;;;;;;;15.63;13.90;;;;;;;-3.49;100.00;99612.88;4986962;28;20213;-68
2021/03/01 00:40:06;;;;;;;16.20;14.50;;;;;;;-3.46;100.00;99607.63;4990888;28;20206;-67
2021/03/01 00:42:33;;;;;;;17.43;13.80;;;;;;;-3.45;100.00;99608.47;4987221;28;20205;-68
2021/03/01 00:45:00;;;;;;;15.60;13.50;;;;;;;-3.50;100.00;99609.44;4988003;28;20204;-67
2021/03/01 00:47:27;;;;;;;16.93;14.80;;;;;;;-3.49;100.00;99605.09;4991209;28;20231;-68
2021/03/01 00:49:55;;;;;;;17.33;14.40;;;;;;;-3.56;100.00;99599.22;4989243;28;20212;-68
2021/03/01 00:52:24;;;;;;;16.53;14.43;;;;;;;-3.56;100.00;99595.75;4991645;28;20559;-67
2021/03/01 00:54:51;;;;;;;16.43;13.83;;;;;;;-3.57;100.00;99600.09;4990259;28;20232;-68
2021/03/01 00:57:18;;;;;;;17.97;15.50;;;;;;;-3.57;100.00;99599.25;4989231;28;20225;-68
2021/03/01 00:59:44;;;;;;;16.93;14.50;;;;;;;-3.58;100.00;99594.94;4993255;28;20216;-68
2021/03/01 01:02:12;;;;;;;15.20;13.63;;;;;;;-3.62;100.00;99599.34;4993175;28;20392;-67
2021/03/01 01:04:39;;;;;;;15.17;13.67;;;;;;;-3.68;100.00;99599.47;4991193;28;20221;-68
2021/03/01 01:07:06;;;;;;;16.10;14.37;;;;;;;-3.71;100.00;99599.53;4990433;28;20227;-68
2021/03/01 01:09:34;;;;;;;17.40;15.13;;;;;;;-3.66;100.00;99597.69;4994449;28;20236;-68
2021/03/01 01:12:01;;;;;;;15.13;13.63;;;;;;;-3.67;100.00;99596.00;4988669;28;20685;-68
2021/03/01 01:14:28;;;;;;;15.90;14.00;;;;;;;-3.65;100.00;99596.81;4991643;28;20207;-68
2021/03/01 01:16:55;;;;;;;16.30;14.03;;;;;;;-3.51;100.00;99587.00;4985659;28;20721;-68
2021/03/01 01:19:22;;;;;;;15.10;13.53;;;;;;;-3.53;100.00;99581.00;4987392;28;20205;-68
2021/03/01 01:21:49;;;;;;;16.23;14.63;;;;;;;-3.63;100.00;99577.75;4986588;28;20597;-68
2021/03/01 01:24:16;;;;;;;17.97;14.23;;;;;;;-3.68;100.00;99582.22;4988055;28;20217;-68
2021/03/01 01:26:44;;;;;;;16.20;13.80;;;;;;;-3.66;100.00;99587.34;4991116;28;20217;-68
2021/03/01 01:29:11;;;;;;;15.43;13.80;;;;;;;-3.76;100.00;99580.66;4986941;28;20798;-68
2021/03/01 01:31:38;;;;;;;15.93;14.23;;;;;;;-3.80;100.00;99587.66;4988913;28;20214;-68
2021/03/01 01:34:05;;;;;;;15.00;13.40;;;;;;;-3.83;100.00;99591.16;4985985;28;20666;-68
2021/03/01 01:36:32;;;;;;;16.27;14.43;;;;;;;-3.70;100.00;99583.13;4986227;28;20340;-68
2021/03/01 01:38:59;;;;;;;15.30;13.70;;;;;;;-3.77;100.00;99590.19;4986407;28;20217;-67
2021/03/01 01:41:26;;;;;;;17.27;14.07;;;;;;;-3.83;100.00;99582.53;4986214;28;20205;-69
2021/03/01 01:43:54;;;;;;;18.63;13.60;;;;;;;-3.85;100.00;99582.59;4987125;28;20757;-67
2021/03/01 01:46:22;;;;;;;14.40;12.93;;;;;;;-3.78;100.00;99576.38;4986491;28;20718;-67
2021/03/01 01:48:49;;;;;;;16.90;13.27;;;;;;;-3.82;100.00;99572.16;4989616;28;20209;-68
2021/03/01 01:51:16;;;;;;;17.73;14.93;;;;;;;-3.90;100.00;99578.38;4985947;28;20209;-68
2021/03/01 01:53:43;;;;;;;17.87;14.30;;;;;;;-3.95;100.00;99573.31;4985180;28;20202;-68
2021/03/01 01:56:10;;;;;;;15.90;14.30;;;;;;;-4.04;100.00;99564.00;4985292;28;20915;-68
2021/03/01 01:58:37;;;;;;;18.37;13.87;;;;;;;-4.02;100.00;99566.53;4987166;28;20445;-67
2021/03/01 02:01:06;;;;;;;15.43;13.67;;;;;;;-4.01;100.00;99563.94;4991086;28;20225;-68
2021/03/01 02:03:43;;;;;;;17.33;14.90;;;;;;;-4.03;100.00;99559.66;4984752;28;20229;-67
2021/03/01 02:06:16;;;;;;;15.03;13.43;;;;;;;-4.12;100.00;99558.97;4988652;28;20628;-68
2021/03/01 02:08:56;;;;;;;16.03;13.63;;;;;;;-4.00;100.00;99557.00;4984651;28;20218;-68
2021/03/01 02:11:30;;;;;;;16.17;14.47;;;;;;;-4.07;100.00;99557.13;4986820;28;20202;-68
2021/03/01 02:14:01;;;;;;;14.10;12.03;;;;;;;-4.05;100.00;99558.84;4985804;28;20208;-68
2021/03/01 02:16:32;;;;;;;14.10;12.60;;;;;;;-4.11;100.00;99557.25;4987191;28;20316;-69
2021/03/01 02:18:59;;;;;;;14.20;12.60;;;;;;;-4.16;100.00;99552.16;4985183;28;20697;-67
2021/03/01 02:21:27;;;;;;;17.40;13.53;;;;;;;-4.14;100.00;99555.56;4987729;28;20737;-68
2021/03/01 02:23:55;;;;;;;16.63;12.73;;;;;;;-4.14;100.00;99555.56;4987961;28;20244;-67
2021/03/01 02:26:25;;;;;;;14.60;12.87;;;;;;;-4.17;100.00;99544.41;4981561;28;20489;-68
2021/03/01 02:28:54;;;;;;;15.77;13.40;;;;;;;-4.18;100.00;99543.56;4982374;28;20204;-67
2021/03/01 02:31:22;;;;;;;14.00;12.60;;;;;;;-4.23;100.00;99542.81;4982822;28;20709;-69
2021/03/01 02:33:53;;;;;;;17.80;13.60;;;;;;;-4.25;100.00;99540.25;4979215;28;20679;-68
2021/03/01 02:36:22;;;;;;;14.87;13.37;;;;;;;-4.24;100.00;99554.06;4978860;28;20260;-68
2021/03/01 02:38:50;;;;;;;15.23;12.37;;;;;;;-4.27;100.00;99549.78;4980117;28;20733;-68
2021/03/01 02:41:19;;;;;;;15.63;14.10;;;;;;;-4.26;100.00;99550.66;4978364;28;20205;-68
2021/03/01 02:43:47;;;;;;;14.13;12.73;;;;;;;-4.27;100.00;99544.63;4975932;28;20206;-69
2021/03/01 02:46:14;;;;;;;12.63;11.43;;;;;;;-4.32;100.00;99545.63;4981561;28;20737;-69
2021/03/01 02:48:42;;;;;;;14.23;11.57;;;;;;;-4.37;100.00;99550.88;5004946;28;20204;-69
2021/03/01 02:51:10;;;;;;;16.93;12.73;;;;;;;-4.31;100.00;99555.91;5005714;28;20205;-70
2021/03/01 02:53:38;;;;;;;14.43;12.33;;;;;;;-4.30;100.00;99547.28;5001063;28;20196;-69
2021/03/01 02:56:05;;;;;;;15.43;12.87;;;;;;;-4.29;100.00;99550.72;5001167;28;20235;-69
2021/03/01 02:58:35;;;;;;;14.07;12.60;;;;;;;-4.37;100.00;99551.72;5004000;28;20212;-70
2021/03/01 03:01:03;;;;;;;16.97;12.60;;;;;;;-4.41;100.00;99557.84;5003452;28;20240;-70
2021/03/01 03:03:31;;;;;;;15.73;13.23;;;;;;;-4.41;100.00;99555.25;5003831;28;20380;-69
2021/03/01 03:05:58;;;;;;;14.13;12.30;;;;;;;-4.43;100.00;99553.59;5002695;28;20233;-69
2021/03/01 03:08:25;;;;;;;13.37;12.07;;;;;;;-4.30;100.00;99543.84;5002329;28;20666;-69
2021/03/01 03:10:53;;;;;;;15.23;12.10;;;;;;;-4.39;100.00;99550.06;5001575;28;20469;-69
2021/03/01 03:13:21;;;;;;;14.60;13.20;;;;;;;-4.46;100.00;99554.50;5001244;28;20202;-67
2021/03/01 03:15:51;;;;;;;16.73;13.73;;;;;;;-4.45;100.00;99552.78;4997614;28;20229;-69
2021/03/01 03:18:19;;;;;;;15.00;12.87;;;;;;;-4.44;100.00;99559.66;5000652;28;20213;-71
2021/03/01 03:20:46;;;;;;;13.80;12.03;;;;;;;-4.10;100.00;99556.38;5005452;28;20205;-68
2021/03/01 03:23:13;;;;;;;16.67;12.67;;;;;;;-4.06;100.00;99558.00;5000858;28;20235;-68
2021/03/01 03:25:40;;;;;;;13.93;12.40;;;;;;;-4.19;100.00;99557.41;5001953;28;20213;-70
2021/03/01 03:28:08;;;;;;;13.23;11.93;;;;;;;-4.32;100.00;99555.97;4995683;28;20224;-68
2021/03/01 03:30:35;;;;;;;13.97;12.13;;;;;;;-4.39;100.00;99557.81;4998649;28;20668;-68
2021/03/01 03:33:04;;;;;;;13.70;12.17;;;;;;;-4.45;100.00;99563.97;4997561;28;20232;-70
2021/03/01 03:35:32;;;;;;;16.50;12.57;;;;;;;-4.47;100.00;99570.06;5000478;28;20228;-68
2021/03/01 03:38:04;;;;;;;15.13;12.60;;;;;;;-4.49;100.00;99570.09;5007648;28;20227;-67
2021/03/01 03:40:32;;;;;;;13.93;12.57;;;;;;;-4.55;100.00;99563.28;4998476;28;21276;-68
2021/03/01 03:42:59;;;;;;;14.20;12.43;;;;;;;-4.59;100.00;99571.16;5000218;28;20212;-67
2021/03/01 03:45:27;;;;;;;15.73;13.60;;;;;;;-4.62;100.00;99579.81;5002266;28;20288;-70
2021/03/01 03:47:55;;;;;;;14.10;12.60;;;;;;;-4.63;100.00;99582.44;5000966;28;20209;-68
2021/03/01 03:50:24;;;;;;;14.07;12.53;;;;;;;-4.66;100.00;99579.03;5006391;28;20712;-69
2021/03/01 03:52:57;;;;;;;15.77;12.67;;;;;;;-4.67;100.00;99582.50;4993781;28;20216;-68
2021/03/01 03:55:24;;;;;;;14.60;11.67;;;;;;;-4.66;100.00;99585.94;4999981;28;20766;-68
2021/03/01 03:57:56;;;;;;;16.60;12.00;;;;;;;-4.70;100.00;99585.16;4998266;28;20209;-68
2021/03/01 04:00:23;;;;;;;15.97;12.60;;;;;;;-4.72;100.00;99578.28;4999852;28;20209;-68
2021/03/01 04:02:52;;;;;;;14.20;12.33;;;;;;;-4.71;100.00;99578.28;5007363;28;20204;-69
2021/03/01 04:05:20;;;;;;;13.50;11.70;;;;;;;-4.74;100.00;99574.88;5000032;28;20205;-68
2021/03/01 04:07:49;;;;;;;13.93;11.43;;;;;;;-4.77;100.00;99574.94;5006821;28;20214;-69
2021/03/01 04:10:16;;;;;;;13.57;11.37;;;;;;;-4.81;100.00;99571.56;5003568;28;20212;-69
2021/03/01 04:12:45;;;;;;;12.70;11.30;;;;;;;-4.78;100.00;99570.66;5003243;28;20223;-69
2021/03/01 04:15:15;;;;;;;15.93;12.87;;;;;;;-4.77;100.00;99577.53;5007591;28;20212;-69
2021/03/01 04:17:43;;;;;;;14.83;12.37;;;;;;;-4.79;100.00;99577.53;5007860;28;20205;-69
2021/03/01 04:20:11;;;;;;;13.83;11.73;;;;;;;-4.81;100.00;99579.31;5002117;28;20296;-70
2021/03/01 04:22:40;;;;;;;17.23;12.87;;;;;;;-4.84;100.00;99575.06;5003533;28;20593;-68
2021/03/01 04:25:09;;;;;;;15.67;12.67;;;;;;;-4.80;100.00;99575.84;5005487;28;20265;-68
2021/03/01 04:27:38;;;;;;;17.63;12.07;;;;;;;-4.73;100.00;99576.59;5002864;28;20232;-68
2021/03/01 04:30:07;;;;;;;12.07;10.97;;;;;;;-4.76;100.00;99576.66;5007093;28;20205;-68
2021/03/01 04:32:35;;;;;;;15.43;12.23;;;;;;;-4.82;100.00;99578.47;5003948;28;20248;-68
2021/03/01 04:35:05;;;;;;;13.37;11.00;;;;;;;-4.85;100.00;99567.31;5010832;28;20208;-68
2021/03/01 04:37:32;;;;;;;13.57;11.67;;;;;;;-4.83;100.00;99581.06;5009282;28;20814;-69
2021/03/01 04:39:59;;;;;;;15.97;12.67;;;;;;;-4.80;100.00;99574.13;5007285;28;20209;-67
2021/03/01 04:42:28;;;;;;;13.10;11.80;;;;;;;-4.86;100.00;99575.97;5007833;28;21202;-69
2021/03/01 04:44:58;;;;;;;12.67;11.10;;;;;;;-4.91;100.00;99572.59;5012923;28;20208;-68
2021/03/01 04:47:26;;;;;;;14.40;12.90;;;;;;;-4.90;100.00;99574.31;5007460;28;20224;-68
2021/03/01 04:49:53;;;;;;;12.87;11.43;;;;;;;-4.93;100.00;99570.03;5002853;28;20589;-68
2021/03/01 04:52:21;;;;;;;14.83;11.43;;;;;;;-4.92;100.00;99569.19;5005970;28;20201;-68
2021/03/01 04:54:48;;;;;;;14.77;12.03;;;;;;;-4.96;100.00;99583.03;5002587;28;20202;-69
2021/03/01 04:57:16;;;;;;;12.87;10.80;;;;;;;-4.96;100.00;99570.97;5007076;28;20577;-68
2021/03/01 04:59:45;;;;;;;13.87;11.80;;;;;;;-5.02;100.00;99573.66;5007435;28;20546;-68
2021/03/01 05:02:13;;;;;;;14.13;12.57;;;;;;;-4.99;100.00;99575.31;5006166;28;20209;-70
2021/03/01 05:04:41;;;;;;;14.40;12.13;;;;;;;-4.98;100.00;99574.44;5006887;28;20674;-68
2021/03/01 05:07:08;;;;;;;18.83;13.80;;;;;;;-4.96;100.00;99567.50;5005551;28;20604;-67
2021/03/01 05:09:36;;;;;;;14.50;13.10;;;;;;;-5.00;100.00;99569.31;5001143;28;20555;-68
2021/03/01 05:12:04;;;;;;;17.07;13.53;;;;;;;-5.04;100.00;99569.38;5001193;28;20209;-69
2021/03/01 05:14:31;;;;;;;15.40;13.00;;;;;;;-5.09;100.00;99569.47;5000986;28;20576;-68
2021/03/01 05:17:01;;;;;;;14.73;13.17;;;;;;;-5.10;100.00;99560.00;5001371;28;20959;-68
2021/03/01 05:19:30;;;;;;;15.60;13.27;;;;;;;-5.03;100.00;99563.31;4999106;28;20461;-69
2021/03/01 05:21:57;;;;;;;13.50;12.10;;;;;;;-5.09;100.00;99561.72;4998717;28;20212;-68
2021/03/01 05:24:24;;;;;;;13.47;12.10;;;;;;;-5.11;100.00;99555.72;5002128;28;20209;-68
2021/03/01 05:26:52;;;;;;;14.53;12.50;;;;;;;-5.07;100.00;99553.91;4998270;28;20398;-68
2021/03/01 05:29:19;;;;;;;13.23;11.83;;;;;;;-5.13;100.00;99550.56;5002025;28;20444;-68
2021/03/01 05:31:47;;;;;;;13.13;11.23;;;;;;;-5.13;100.00;99549.69;5009113;28;20208;-66
2021/03/01 05:34:15;;;;;;;14.13;11.50;;;;;;;-5.06;100.00;99559.06;5005063;28;20215;-68
2021/03/01 05:36:42;;;;;;;13.13;11.83;;;;;;;-5.05;100.00;99554.75;5004898;28;20224;-69
2021/03/01 05:39:10;;;;;;;12.87;11.27;;;;;;;-5.04;100.00;99562.50;5006884;28;20209;-68
2021/03/01 05:41:40;;;;;;;13.33;11.97;;;;;;;-5.01;100.00;99572.78;5007040;28;20200;-68
2021/03/01 05:44:08;;;;;;;14.57;12.07;;;;;;;-4.83;100.00;99570.72;5006241;28;20197;-66
2021/03/01 05:46:36;;;;;;;16.00;12.53;;;;;;;-4.89;100.00;99565.66;5005770;28;20746;-68
2021/03/01 05:49:03;;;;;;;13.23;11.17;;;;;;;-4.84;100.00;99571.59;5005206;28;20293;-68
2021/03/01 05:51:32;;;;;;;17.63;10.87;;;;;;;-4.82;100.00;99562.94;5006474;28;20213;-67
2021/03/01 05:54:00;;;;;;;14.63;10.87;;;;;;;-4.87;100.00;99569.06;5002846;28;20220;-65
2021/03/01 05:56:28;;;;;;;12.43;11.17;;;;;;;-4.96;100.00;99570.09;5002463;28;20236;-66
2021/03/01 05:58:56;;;;;;;16.83;12.37;;;;;;;-4.85;100.00;99577.66;5005149;28;20823;-65
2021/03/01 06:01:24;;;;;;;12.47;11.17;;;;;;;-5.07;100.00;99583.22;5005863;28;20201;-65
2021/03/01 06:03:51;;;;;;;13.13;11.83;;;;;;;-4.88;100.00;99594.09;5002351;28;20201;-68
2021/03/01 06:06:18;;;;;;;12.30;11.00;;;;;;;-4.90;100.00;99598.44;5005207;28;20472;-68
2021/03/01 06:08:47;;;;;;;12.93;11.17;;;;;;;-4.83;100.00;99594.88;5005577;28;20212;-69
2021/03/01 06:11:14;;;;;;;14.77;13.27;;;;;;;-4.78;100.00;99599.09;5000505;28;20212;-70
2021/03/01 06:13:41;;;;;;;15.60;13.77;;;;;;;-4.86;100.00;99594.94;5005840;28;20216;-71
2021/03/01 06:16:09;;;;;;;14.20;12.90;;;;;;;-4.88;100.00;99598.41;5006288;28;20254;-70
2021/03/01 06:18:43;;;;;;;14.13;11.57;;;;;;;-4.95;100.00;99601.09;5003297;28;20669;-67
2021/03/01 06:21:12;;;;;;;13.93;11.07;;;;;;;-4.96;100.00;99606.28;5008367;28;20205;-68
2021/03/01 06:23:40;;;;;;;13.83;11.43;;;;;;;-4.88;100.00;99598.41;5008416;28;20204;-67
2021/03/01 06:26:26;;;;;;;13.60;11.67;;;;;;;-4.84;100.00;99610.41;5002752;28;20243;-69
2021/03/01 06:28:54;;;;;;;13.40;12.00;;;;;;;-4.84;100.00;99608.69;5003709;28;20309;-68
2021/03/01 06:31:32;;;;;;;13.10;11.73;;;;;;;-4.80;100.00;99610.34;5008181;28;20233;-68
2021/03/01 06:34:20;;;;;;;13.97;12.40;;;;;;;-4.76;100.00;99608.53;5008326;28;20298;-68
2021/03/01 06:37:00;;;;;;;17.47;14.47;;;;;;;-4.70;100.00;99612.75;5003211;28;20228;-68
2021/03/01 06:39:31;;;;;;;16.17;14.47;;;;;;;-4.60;100.00;99618.63;5005614;28;20302;-68
2021/03/01 06:42:19;;;;;;;17.17;15.40;;;;;;;-4.58;100.00;99616.84;5003839;28;20216;-68
2021/03/01 06:44:48;;;;;;;15.27;13.57;;;;;;;-4.54;100.00;99618.50;5004987;28;20213;-67
2021/03/01 06:47:15;;;;;;;16.20;13.00;;;;;;;-4.44;100.00;99624.34;5003110;28;20221;-69
2021/03/01 06:49:44;;;;;;;15.93;13.37;;;;;;;-4.42;100.00;99625.19;4999188;28;20340;-67
2021/03/01 06:52:38;;;;;;;13.37;11.97;;;;;;;-4.30;100.00;99626.69;5006742;28;20216;-67
2021/03/01 06:55:12;;;;;;;17.07;12.87;;;;;;;-3.98;100.00;99630.34;5005087;28;20207;-69
2021/03/01 06:57:43;;;;;;;19.93;14.33;;;;;;;-3.96;100.00;99626.00;5007269;28;20231;-68
2021/03/01 07:00:11;;;;;;;19.10;15.13;;;;;;;-4.02;100.00;99637.34;5004816;28;20200;-69
2021/03/01 07:02:39;;;;;;;18.57;15.07;;;;;;;-4.03;100.00;99637.34;5004564;28;20661;-68
2021/03/01 07:05:07;;;;;;;13.47;12.13;;;;;;;-3.85;100.00;99643.88;5005840;28;20647;-69
2021/03/01 07:07:35;;;;;;;13.23;11.87;;;;;;;-3.84;100.00;99640.41;5006396;28;20248;-68
2021/03/01 07:10:03;;;;;;;13.33;11.93;;;;;;;-3.71;100.00;99641.88;5003628;28;20624;-68
2021/03/01 07:12:37;;;;;;;14.93;12.03;;;;;;;-3.64;99.99;99638.25;5005039;28;20205;-68
2021/03/01 07:15:08;;;;;;;17.03;12.97;;;;;;;-3.53;99.81;99650.13;5003226;28;20686;-68
2021/03/01 07:17:37;;;;;;;14.63;11.63;;;;;;;-3.43;99.48;99650.78;5005375;28;20695;-68
2021/03/01 07:20:07;;;;;;;16.27;12.80;;;;;;;-3.33;98.82;99644.47;5003813;28;21166;-68
2021/03/01 07:22:35;;;;;;;12.93;11.20;;;;;;;-3.26;99.29;99647.78;5006320;28;20581;-67
2021/03/01 07:25:02;;;;;;;12.90;11.50;;;;;;;-3.06;99.25;99645.56;5004424;28;20210;-69
2021/03/01 07:27:29;;;;;;;15.83;12.80;;;;;;;-2.95;98.71;99637.53;5005634;28;20228;-70
2021/03/01 07:29:57;;;;;;;15.10;12.70;;;;;;;-2.64;96.48;99644.53;5008163;28;20204;-69
2021/03/01 07:32:27;;;;;;;13.23;11.83;;;;;;;-2.70;97.46;99642.09;5003768;28;20208;-68
2021/03/01 07:34:56;;;;;;;15.97;12.90;;;;;;;-2.53;97.46;99648.59;5003002;28;20877;-68
2021/03/01 07:37:23;;;;;;;18.13;13.87;;;;;;;-2.44;97.13;99650.97;5005481;28;20700;-68
2021/03/01 07:39:50;;;;;;;28.17;19.10;;;;;;;-2.29;98.10;99649.66;5001930;28;20217;-69
2021/03/01 07:42:17;;;;;;;19.80;16.27;;;;;;;-2.18;97.64;99649.38;5002067;28;20212;-67
2021/03/01 07:44:46;;;;;;;16.40;14.80;;;;;;;-2.00;96.24;99645.41;4999885;28;20207;-68
2021/03/01 07:47:13;;;;;;;15.03;13.43;;;;;;;-1.77;96.83;99651.72;4999407;28;20711;-69
2021/03/01 07:49:43;;;;;;;21.63;15.37;;;;;;;-1.54;94.74;99643.22;5000546;28;20633;-69
2021/03/01 07:52:34;;;;;;;15.70;12.63;;;;;;;-1.23;92.24;99650.06;5001188;28;20623;-68
2021/03/01 07:55:04;;;;;;;16.80;13.80;;;;;;;-1.12;90.60;99647.13;5000444;28;20571;-68
2021/03/01 07:57:31;;;;;;;20.23;16.47;;;;;;;-1.09;91.38;99646.16;5007611;28;20229;-67
2021/03/01 08:00:00;;;;;;;18.60;13.73;;;;;;;-0.83;89.92;99653.13;5004294;28;20213;-67
2021/03/01 08:02:29;;;;;;;17.33;13.87;;;;;;;-0.77;89.41;99644.28;5007202;28;20216;-68
2021/03/01 08:04:59;;;;;;;17.40;14.30;;;;;;;-0.45;87.28;99643.16;5003333;28;20216;-68
2021/03/01 08:07:40;;;;;;;14.77;12.60;;;;;;;-0.38;86.42;99646.41;5005040;28;20225;-68
2021/03/01 08:10:09;;;;;;;14.73;12.93;;;;;;;-0.24;86.70;99645.94;5007492;28;20316;-68
2021/03/01 08:12:59;;;;;;;15.27;13.77;;;;;;;-0.14;86.47;99643.84;5006684;28;20209;-68
2021/03/01 08:15:34;;;;;;;18.03;13.47;;;;;;;0.04;85.34;99644.06;5007524;28;20630;-68
2021/03/01 08:18:01;;;;;;;15.30;13.70;;;;;;;0.21;83.97;99646.91;5009278;28;20286;-68
2021/03/01 08:20:55;;;;;;;14.47;12.73;;;;;;;0.36;82.96;99650.69;5008483;28;20219;-68
2021/03/01 08:23:31;;;;;;;18.17;14.17;;;;;;;0.59;81.99;99643.72;5011959;28;20744;-69
2021/03/01 08:26:02;;;;;;;17.73;13.67;;;;;;;0.78;81.36;99648.25;5007392;28;20319;-68
2021/03/01 08:28:48;;;;;;;18.17;14.23;;;;;;;0.83;80.85;99643.69;5007681;28;20201;-69
2021/03/01 08:31:33;;;;;;;16.67;14.93;;;;;;;1.01;80.18;99644.72;5006466;28;20209;-68
2021/03/01 08:34:28;;;;;;;26.97;13.47;;;;;;;1.31;79.22;99646.94;5003033;28;20787;-69
2021/03/01 08:36:57;;;;;;;19.67;13.33;;;;;;;1.27;78.84;99642.75;5006029;28;20248;-68
2021/03/01 08:39:59;;;;;;;18.53;13.17;;;;;;;1.56;78.35;99644.16;5008287;28;20197;-68
2021/03/01 08:42:55;;;;;;;20.80;12.80;;;;;;;1.83;76.40;99643.00;5006192;28;20211;-69
2021/03/01 08:45:28;;;;;;;18.03;12.17;;;;;;;2.10;74.99;99648.78;5005244;28;20698;-69
2021/03/01 08:47:56;;;;;;;20.97;13.97;;;;;;;2.01;74.85;99649.19;5008309;28;20216;-69
2021/03/01 08:50:27;;;;;;;19.60;14.63;;;;;;;2.05;75.13;99648.13;5007682;28;21025;-68
2021/03/01 08:53:19;;;;;;;16.10;12.57;;;;;;;2.22;74.19;99650.00;5003404;28;20204;-68
2021/03/01 08:55:46;;;;;;;18.83;13.43;;;;;;;2.26;74.76;99655.91;5006834;28;20235;-69
2021/03/01 08:58:14;;;;;;;20.90;14.40;;;;;;;2.53;73.45;99645.09;5007506;28;20220;-70
2021/03/01 09:00:55;;;;;;;23.53;14.30;;;;;;;2.76;72.50;99644.00;5002767;28;20445;-70
2021/03/01 09:03:25;;;;;;;15.83;13.03;;;;;;;2.89;71.81;99641.63;5008275;28;20630;-67
2021/03/01 09:05:55;;;;;;;19.40;13.73;;;;;;;2.93;72.26;99637.94;5007134;28;20708;-68
2021/03/01 09:08:28;;;;;;;18.07;12.97;;;;;;;3.03;72.28;99635.72;5007870;28;20448;-67
2021/03/01 09:10:56;;;;;;;19.43;13.07;;;;;;;3.17;71.42;99633.28;5003793;28;20220;-67
2021/03/01 09:13:24;;;;;;;17.80;12.87;;;;;;;3.31;70.98;99635.19;5008515;28;20208;-66
2021/03/01 09:15:52;;;;;;;23.70;13.03;;;;;;;3.71;69.58;99631.47;5007551;28;20220;-69
2021/03/01 09:18:19;;;;;;;19.50;12.53;;;;;;;3.81;69.29;99640.56;5007508;28;20324;-68
2021/03/01 09:20:51;;;;;;;18.97;13.27;;;;;;;3.86;69.73;99638.56;5008740;28;20201;-67
2021/03/01 09:23:35;;;;;;;17.90;13.73;;;;;;;4.31;66.87;99636.16;5005743;28;20215;-68
2021/03/01 09:26:03;;;;;;;21.47;13.63;;;;;;;4.72;64.66;99626.06;5007919;28;20274;-68
2021/03/01 09:28:31;;;;;;;22.97;15.60;;;;;;;4.66;64.68;99626.41;5006653;28;20300;-68
2021/03/01 09:31:07;;;;;;;36.40;18.60;;;;;;;4.63;64.75;99623.03;5013726;28;20212;-66
2021/03/01 09:33:34;;;;;;;17.90;14.50;;;;;;;5.06;63.92;99624.13;5011275;28;20299;-68
2021/03/01 09:36:01;;;;;;;20.23;12.57;;;;;;;4.97;63.52;99619.44;5006142;28;20239;-67
2021/03/01 09:38:28;;;;;;;17.00;12.93;;;;;;;5.03;63.56;99627.81;5007153;28;20209;-67
2021/03/01 09:40:58;;;;;;;15.47;12.00;;;;;;;5.14;62.64;99621.94;5007854;28;20213;-67
2021/03/01 09:43:26;;;;;;;20.43;12.90;;;;;;;5.14;62.63;99621.94;5008580;28;20605;-67
2021/03/01 09:45:53;;;;;;;16.83;12.77;;;;;;;5.38;62.23;99615.34;5008083;28;20229;-68
2021/03/01 09:48:20;;;;;;;18.63;12.03;;;;;;;5.30;62.23;99613.16;5011414;28;20722;-68
2021/03/01 09:50:48;;;;;;;17.20;12.97;;;;;;;5.33;62.33;99608.56;5007135;28;20622;-68
2021/03/01 09:53:16;;;;;;;16.60;12.43;;;;;;;5.51;62.01;99611.03;5006189;28;20592;-68
2021/03/01 09:55:44;;;;;;;16.60;12.93;;;;;;;5.64;62.13;99611.97;5002814;28;20274;-67
2021/03/01 09:58:29;;;;;;;17.03;12.27;;;;;;;5.92;61.16;99612.09;5006471;28;20224;-68
2021/03/01 10:01:10;;;;;;;19.73;11.97;;;;;;;6.18;60.01;99612.28;5006090;28;20209;-67
2021/03/01 10:03:40;;;;;;;18.77;13.87;;;;;;;6.22;60.12;99613.78;5008400;28;20201;-68
2021/03/01 10:06:07;;;;;;;16.87;11.40;;;;;;;6.53;58.91;99613.63;5001878;28;20226;-68
2021/03/01 10:08:35;;;;;;;16.33;11.77;;;;;;;6.59;57.33;99610.59;5005740;28;20356;-66
2021/03/01 10:11:03;;;;;;;16.47;11.43;;;;;;;6.48;59.24;99606.03;5008402;28;20229;-68
2021/03/01 10:13:33;;;;;;;19.90;12.57;;;;;;;6.55;57.92;99599.41;5004932;28;20213;-68
2021/03/01 10:16:01;;;;;;;16.67;12.17;;;;;;;6.35;58.14;99596.28;5011445;28;20248;-68
2021/03/01 10:18:30;;;;;;;17.07;11.73;;;;;;;6.73;56.97;99596.53;5005286;28;20232;-69
2021/03/01 10:21:00;;;;;;;14.40;12.23;;;;;;;6.60;57.64;99586.78;5006425;28;20204;-69
2021/03/01 10:23:37;;;;;;;15.23;12.43;;;;;;;6.54;58.35;99588.97;5007185;28;20208;-70
2021/03/01 10:26:16;;;;;;;15.13;12.20;;;;;;;6.64;57.67;99593.56;5005331;28;20231;-69
2021/03/01 10:28:52;;;;;;;15.70;12.03;;;;;;;6.75;57.64;99584.13;5003713;28;20201;-69
2021/03/01 10:31:21;;;;;;;16.17;10.67;;;;;;;6.62;57.61;99582.25;5006174;28;20205;-69
2021/03/01 10:33:50;;;;;;;12.47;10.90;;;;;;;6.81;57.39;99579.25;5004542;28;20205;-71
2021/03/01 10:36:18;;;;;;;16.70;11.60;;;;;;;6.73;57.43;99589.47;5004135;28;21275;-69
2021/03/01 10:38:56;;;;;;;12.40;11.10;;;;;;;7.01;57.17;99582.38;5006994;28;20597;-70
2021/03/01 10:41:25;;;;;;;14.60;11.47;;;;;;;7.10;57.37;99583.56;5004911;28;20228;-69
2021/03/01 10:43:55;;;;;;;14.07;11.13;;;;;;;7.27;57.20;99579.81;5004534;28;20213;-69
2021/03/01 10:46:30;;;;;;;12.60;11.10;;;;;;;7.36;55.75;99581.81;5005004;28;20221;-68
2021/03/01 10:48:57;;;;;;;14.53;11.60;;;;;;;7.49;55.97;99583.59;5005731;28;20208;-68
2021/03/01 10:51:24;;;;;;;12.67;9.83;;;;;;;7.74;55.08;99576.63;5006615;28;20227;-69
2021/03/01 10:53:51;;;;;;;12.60;11.23;;;;;;;7.85;54.27;99576.72;5007578;28;20855;-68
2021/03/01 10:56:18;;;;;;;11.87;10.13;;;;;;;7.93;54.02;99581.47;5003844;28;20224;-69
2021/03/01 10:58:45;;;;;;;15.13;10.63;;;;;;;7.94;54.46;99577.88;5011022;28;20203;-69
2021/03/01 11:01:13;;;;;;;13.77;10.20;;;;;;;8.19;53.78;99573.50;5007742;28;20205;-70
2021/03/01 11:03:40;;;;;;;13.73;10.97;;;;;;;8.25;54.32;99571.25;5001634;28;20227;-70
2021/03/01 11:06:08;;;;;;;11.60;10.40;;;;;;;8.42;53.72;99571.84;5006823;28;20228;-70
2021/03/01 11:08:35;;;;;;;13.50;10.43;;;;;;;8.43;54.06;99568.25;5004711;28;20211;-69
2021/03/01 11:11:02;;;;;;;11.27;10.17;;;;;;;8.59;52.15;99568.00;5006246;28;21004;-69
2021/03/01 11:13:29;;;;;;;13.20;10.30;;;;;;;8.65;52.24;99559.63;5004835;28;20205;-70
2021/03/01 11:15:56;;;;;;;14.20;10.57;;;;;;;8.68;52.01;99561.19;5007020;28;20237;-69
2021/03/01 11:18:25;;;;;;;11.37;10.13;;;;;;;8.88;51.62;99554.41;5004300;28;20602;-70
2021/03/01 11:20:52;;;;;;;12.80;10.80;;;;;;;8.86;51.30;99548.41;5006045;28;20220;-69
2021/03/01 11:23:19;;;;;;;12.00;10.80;;;;;;;8.98;51.31;99544.84;5004724;28;20201;-69
2021/03/01 11:25:47;;;;;;;12.57;10.00;;;;;;;8.82;51.20;99542.50;5008806;28;20232;-69